NCAR-RAP Real-Time Weather Data

Output produced by METARs form (12 August 2020  18:04 UTC)
found at http://weather.rap.ucar.edu/surface/
 
KCHA 121753Z 00000KT 10SM SCT050 SCT090 SCT150 BKN250 34/21 A3002 RMK AO2 SLP154 TCU DSNT NW-N T03390211 10339 20244 58011
KCHA 121653Z COR 00000KT 10SM SCT041 SCT080 SCT150 BKN250 33/22 A3004 RMK AO2 SLP164 T03280222
KCHA 121553Z 29004KT 10SM FEW038 FEW150 SCT250 32/23 A3005 RMK AO2 SLP167 T03220228
KCHA 121453Z 01005KT 10SM FEW030 FEW150 SCT250 31/23 A3005 RMK AO2 SLP166 T03110228 50000
KCHA 121353Z 00000KT 10SM FEW150 SCT250 29/22 A3005 RMK AO2 SLP167 T02890222
KCHA 121253Z 00000KT 10SM FEW150 SCT250 27/23 A3006 RMK AO2 SLP169 T02720228
KCHA 121153Z 20003KT 10SM FEW070 SCT150 SCT250 24/23 A3005 RMK AO2 SLP166 70006 T02440228 10261 20239 53016
KCHA 121053Z 00000KT 10SM FEW070 SCT150 SCT250 24/22 A3003 RMK AO2 SLP158 T02390222
KCHA 120953Z 00000KT 10SM SCT250 24/23 A3001 RMK AO2 SLP153 T02440228
KCHA 120853Z 00000KT 10SM CLR 25/23 A3000 RMK AO2 SLP149 T02500228 56008
KCHA 120753Z 00000KT 10SM CLR 25/23 A3000 RMK AO2 SLP149 T02500233
KCHA 120653Z 00000KT 10SM CLR 26/23 A3001 RMK AO2 SLP152 T02560233
KCHA 120553Z 32003KT 10SM CLR 26/23 A3002 RMK AO2 SLP157 T02560233 10300 20256 50008
KCHA 120453Z 00000KT 10SM BKN049 26/23 A3003 RMK AO2 SLP159 T02610233 403500233
KCHA 120353Z 00000KT 10SM SCT048 26/24 A3002 RMK AO2 SLP155 LAST T02610239
KCHA 120253Z 00000KT 10SM FEW050 27/24 A3000 RMK AO2 SLP149 T02720239 51013
KCHA 120153Z 00000KT 10SM SCT250 28/23 A2999 RMK AO2 SLP147 T02830233
KCHA 120053Z 00000KT 10SM FEW060 SCT250 28/25 A2997 RMK AO2 SLP141 T02780250
KCHA 112353Z 00000KT 10SM SCT060 BKN250 30/26 A2996 RMK AO2 SLP136 60006 T03000256 10350 20278 55001
KCHA 112253Z 19004KT 10SM SCT045TCU SCT090 BKN250 31/23 A2996 RMK AO2 RAB17E33 SLP135 TCU NW P0006 T03060228
KCHA 112153Z 23005KT 10SM SCT050TCU SCT100 BKN130 BKN250 33/21 A2995 RMK AO2 SLP134 TCU OHD-NW T03330206
KCHA 112053Z 03004KT 10SM SCT048 SCT130 SCT250 33/21 A2996 RMK AO2 SLP137 TCU DSNT SE MDT CU NE T03330206 56023
KCHA 111953Z 29004KT 10SM SCT050 SCT250 34/22 A2999 RMK AO2 SLP144 TCU DSNT SE MDT CU S-SW T03440217
KCHA 111853Z 00000KT 10SM SCT050TCU SCT150 SCT250 34/22 A3001 RMK AO2 SLP153 TCU W MDT CU NE AND S T03390217
KCHA 111753Z VRB03KT 10SM SCT040 SCT210 SCT250 33/22 A3003 RMK AO2 SLP161 MDT CU W-N T03330217 10333 20239 58013
KCHA 111653Z VRB03KT 10SM FEW032 FEW200 SCT250 32/22 A3005 RMK AO2 SLP165 T03170222
KCHA 111553Z 00000KT 10SM FEW028 SCT200 SCT250 29/22 A3006 RMK AO2 SLP171 T02940222
KCHA 111453Z 00000KT 10SM SCT021 SCT150 SCT200 28/22 A3007 RMK AO2 SLP175 T02780222 53014
KCHA 111353Z 00000KT 10SM SCT018 SCT140 SCT180 SCT250 26/22 A3005 RMK AO2 SLP168 T02610217
KCHA 111253Z 12004KT 10SM FEW007 BKN140 BKN180 BKN250 24/22 A3002 RMK AO2 SLP158 T02390222
KCHA 111153Z 17004KT 10SM FEW005 FEW055 BKN140 BKN170 BKN250 24/23 A3003 RMK AO2 SLP160 60000 70037 T02390228 10239 20233 50004
KCHA 111053Z 23004KT 10SM FEW006 BKN055 BKN080 BKN250 23/22 A3005 RMK AO2 SLP167 T02330217 $
KCHA 110953Z 26004KT 10SM FEW006 BKN055 BKN075 23/22 A3004 RMK AO2 SLP165 T02330217 $
KCHA 110906Z 00000KT 7SM SCT004 SCT075 23/23 A3003 RMK AO2 T02330228 $
KCHA 110853Z 00000KT 7SM FEW050 SCT075 23/23 A3002 RMK AO2 SLP156 60000 T02330228 55005 $
KCHA 110821Z 26006KT 8SM FEW008 SCT055 24/23 A3003 RMK AO2 PRESRR T02390228 $
KCHA 110753Z 19003KT 9SM CLR 24/23 A3001 RMK AO2 SLP153 T02390228 $
KCHA 110653Z 00000KT 10SM FEW006 24/23 A3002 RMK AO2 RAE04 SLP155 P0000 T02390228 $
KCHA 110600Z 12004KT 10SM -RA FEW006 FEW090 BKN110 24/23 A3003 RMK AO2 P0000 T02390228 $
KCHA 110553Z 00000KT 9SM -RA FEW090 SCT110 24/23 A3003 RMK AO2 RAB15 SLP162 P0016 60016 T02390233 10267 20239 58009 $
KCHA 110527Z 16003KT 3SM -RA BR FEW015 SCT031 BKN065 24/23 A3005 RMK AO2 RAB15 P0016 T02390228 $
KCHA 110525Z VRB03KT 2SM RA BR FEW015 BKN029 BKN070 24/23 A3005 RMK AO2 RAB15 P0014 T02390233 $
KCHA 110520Z 18008KT 1 1/4SM +RA BR FEW015 BKN029 OVC100 24/23 A3005 RMK AO2 RAB15 PRESFR P0004 T02440233 $
KCHA 110517Z 20009KT 1 3/4SM +RA BR FEW015 SCT026 BKN060 24/23 A3006 RMK AO2 RAB15 P0000 T02440228 $
KCHA 110453Z 00000KT 10SM SCT085 24/22 A3006 RMK AO2 LTG DSNT NW SLP169 T02440222 403110239 $
KCHA 110353Z 14003KT 8SM FEW040 BKN130 OVC250 24/23 A3004 RMK AO2 SLP164 LAST OCNL LTGIC DSNT SW CB DSNT SW T02440228 $
KCHA 110253Z 10003KT 7SM FEW010 BKN140 OVC250 25/22 A3006 RMK AO2 SLP170 60000 T02500222 53005 $
KCHA 110153Z VRB03KT 8SM SCT120 OVC250 25/23 A3004 RMK AO2 RAE46 SLP164 P0000 T02500228 $
KCHA 110053Z VRB03KT 10SM -RA FEW025 SCT110 BKN140 OVC250 26/23 A3001 RMK AO2 LTG DSNT SW AND W RAB10E22B50 SLP153 OCNL LTGIC DSNT SW CB DSNT SW AND W P0000 T02560233 $
KCHA 102353Z 01004KT 10SM FEW012 SCT022 SCT085 BKN140 OVC250 27/24 A3005 RMK AO2 SLP166 LTG DSNT W CB DSNT W 60021 T02670239 10283 20256 55004 $
KCHA 102253Z 22004KT 10SM SCT035 SCT170 BKN250 27/23 A3003 RMK AO2 SLP162 LTG DSNT NW-N CB DSNT NW-N T02670233 $
KCHA 102153Z 00000KT 10SM FEW038 SCT120 BKN240 27/24 A3004 RMK AO2 RAE00 SLP163 LTG DSNT NW CB DSNT NW P0000 T02720239 $
KCHA 102053Z 16004KT 10SM -RA FEW036 SCT080 SCT130 BKN250 27/23 A3006 RMK AO2 RAB49 SLP170 LTG DSNT W AND NW CB DSNT W AND NW P0000 60021 T02670233 58012 $
KCHA 101953Z 00000KT 10SM FEW012 FEW040 SCT130 BKN250 26/24 A3007 RMK AO2 RAE11 SLP174 LTG DSNT S AND NW CB DSNT S AND NW P0000 T02610239 $
KCHA 101853Z 10006KT 5SM -RA BR SCT045 BKN070 BKN110 26/24 A3009 RMK AO2 RAB18 TSE52 SLP182 LTG DSNT SE-SW CB DSNT SE-SW TS MOV SE P0021 T02610239 $
KCHA 101834Z 13005KT 3SM -TSRA BR SCT045CB BKN070 BKN110 26/24 A3010 RMK AO2 RAB18 LTG DSNT SE-W CB DSNT SE-W OCNL LTGCG NE-SE TS NE-SE MOV SE P0016 T02560239 $
KCHA 101821Z 35008KT 1 1/2SM TSRA SCT047CB BKN070 BKN110 27/23 A3012 RMK AO2 RAB18 LTG DSNT S-SW CB DSNT S-SW OCNL LTGCG OHD-N-NE TS OHD-N-NE MOV SE P0000 T02720233